createdAt,value
2023-09-06T00:00:09.766Z,57.01
2023-09-06T00:02:37.539Z,57.08
2023-09-06T00:05:06.456Z,57.14
2023-09-06T00:07:35.756Z,57.11
2023-09-06T00:10:03.620Z,56.92
2023-09-06T00:12:31.542Z,56.86
2023-09-06T00:14:59.318Z,57.14
2023-09-06T00:17:27.155Z,56.68
2023-09-06T00:19:54.948Z,57.10
2023-09-06T00:22:22.767Z,57.26
2023-09-06T00:24:51.981Z,56.98
2023-09-06T00:27:19.776Z,56.87
2023-09-06T00:29:48.227Z,56.79
2023-09-06T00:32:16.019Z,56.92
2023-09-06T00:34:43.815Z,57.19
2023-09-06T00:37:11.711Z,57.10
2023-09-06T00:39:40.116Z,56.80
2023-09-06T00:42:09.316Z,56.73
2023-09-06T00:44:37.042Z,56.88
2023-09-06T00:47:05.259Z,57.19
2023-09-06T00:49:33.182Z,56.67
2023-09-06T00:52:01.079Z,57.06
2023-09-06T00:54:29.259Z,57.05
2023-09-06T00:56:57.194Z,56.77
2023-09-06T00:59:28.115Z,56.71
2023-09-06T01:01:56.510Z,56.79
2023-09-06T01:04:26.574Z,57.26
2023-09-06T01:06:58.853Z,56.95
2023-09-06T01:09:27.380Z,56.74
2023-09-06T01:11:55.108Z,57.35
2023-09-06T01:14:22.923Z,56.93
2023-09-06T01:16:55.602Z,57.12
2023-09-06T01:19:27.945Z,57.22
2023-09-06T01:22:06.723Z,57.21
2023-09-06T01:24:36.529Z,57.30
2023-09-06T01:27:06.673Z,57.15
2023-09-06T01:29:36.058Z,57.37
2023-09-06T01:32:06.354Z,57.36
2023-09-06T01:34:34.265Z,56.97
2023-09-06T01:37:02.065Z,57.26
2023-09-06T01:39:29.816Z,57.07
2023-09-06T01:41:58.981Z,57.00
2023-09-06T01:44:28.186Z,57.07
2023-09-06T01:46:56.135Z,57.28
2023-09-06T01:49:24.072Z,57.16
2023-09-06T01:51:51.866Z,57.42
2023-09-06T01:54:19.861Z,57.50
2023-09-06T01:56:47.660Z,57.23
2023-09-06T01:59:16.795Z,57.51
2023-09-06T02:01:44.670Z,57.45
2023-09-06T02:04:12.569Z,57.63
2023-09-06T02:06:40.481Z,57.30
2023-09-06T02:09:08.428Z,57.49
2023-09-06T02:11:36.241Z,57.24
2023-09-06T02:14:04.015Z,57.70
2023-09-06T02:16:33.190Z,57.44
2023-09-06T02:19:01.110Z,57.31
2023-09-06T02:21:29.652Z,57.35
2023-09-06T02:23:58.089Z,57.63
2023-09-06T02:26:25.938Z,57.43
2023-09-06T02:28:53.686Z,57.75
2023-09-06T02:31:21.565Z,57.71
2023-09-06T02:33:50.733Z,57.70
2023-09-06T02:36:18.491Z,57.53
2023-09-06T02:38:48.279Z,57.62
2023-09-06T02:41:16.252Z,57.75
2023-09-06T02:43:43.982Z,57.39
2023-09-06T02:46:13.601Z,57.62
2023-09-06T02:48:42.088Z,57.86
2023-09-06T02:51:11.496Z,57.46
2023-09-06T02:53:45.343Z,57.47
2023-09-06T02:56:15.146Z,57.73
2023-09-06T02:58:44.081Z,57.65
2023-09-06T03:01:20.750Z,57.82
2023-09-06T03:03:52.426Z,57.76
2023-09-06T03:06:33.589Z,57.66
2023-09-06T03:09:01.960Z,57.51
2023-09-06T03:11:29.684Z,57.62
2023-09-06T03:13:58.465Z,57.88
2023-09-06T03:16:26.490Z,57.85
2023-09-06T03:18:55.304Z,57.64
2023-09-06T03:21:25.325Z,57.64
2023-09-06T03:23:54.006Z,57.92
2023-09-06T03:26:23.989Z,57.67
2023-09-06T03:28:56.228Z,57.59
2023-09-06T03:31:26.255Z,57.86
2023-09-06T03:33:54.207Z,57.89
2023-09-06T03:36:26.073Z,57.68
2023-09-06T03:38:56.637Z,57.80
2023-09-06T03:41:24.459Z,57.76
2023-09-06T03:43:55.144Z,57.80
2023-09-06T03:46:23.641Z,57.87
2023-09-06T03:48:51.662Z,57.82
2023-09-06T03:51:20.076Z,57.96
2023-09-06T03:53:48.882Z,57.86
2023-09-06T03:56:18.092Z,57.96
2023-09-06T03:58:45.892Z,58.13
2023-09-06T04:01:16.899Z,58.08
2023-09-06T04:03:45.048Z,57.97
2023-09-06T04:06:13.148Z,58.10
2023-09-06T04:08:41.183Z,58.12
2023-09-06T04:11:11.905Z,57.99
2023-09-06T04:13:44.631Z,58.13
2023-09-06T04:16:12.576Z,58.15
2023-09-06T04:18:42.838Z,58.17
2023-09-06T04:21:12.135Z,58.01
2023-09-06T04:23:40.540Z,58.31
2023-09-06T04:26:08.882Z,58.22
2023-09-06T04:28:37.142Z,58.14
2023-09-06T04:31:06.620Z,58.25
2023-09-06T04:33:34.378Z,58.12
2023-09-06T04:36:03.928Z,58.15
2023-09-06T04:38:32.484Z,58.39
2023-09-06T04:41:00.950Z,58.20
2023-09-06T04:43:29.261Z,58.41
2023-09-06T04:45:57.301Z,58.30
2023-09-06T04:48:26.657Z,58.33
2023-09-06T04:50:57.561Z,58.32
2023-09-06T04:53:25.366Z,58.29
2023-09-06T04:55:53.949Z,58.43
2023-09-06T04:58:21.878Z,58.29
2023-09-06T05:00:50.518Z,58.55
2023-09-06T05:03:20.029Z,58.47
2023-09-06T05:05:49.979Z,58.38
2023-09-06T05:08:18.086Z,58.32
2023-09-06T05:10:45.887Z,58.50
2023-09-06T05:13:13.747Z,58.55
2023-09-06T05:15:41.721Z,58.64
2023-09-06T05:18:10.237Z,58.58
2023-09-06T05:20:40.522Z,58.62
2023-09-06T05:23:10.985Z,58.71
2023-09-06T05:25:39.374Z,58.41
2023-09-06T05:28:09.378Z,58.56
2023-09-06T05:30:39.893Z,58.43
2023-09-06T05:33:08.638Z,58.71
2023-09-06T05:35:36.564Z,58.67
2023-09-06T05:38:05.344Z,58.63
2023-09-06T05:40:35.751Z,58.76
2023-09-06T05:43:05.185Z,58.76
2023-09-06T05:45:33.324Z,58.80
2023-09-06T05:48:01.234Z,58.71
2023-09-06T05:50:29.289Z,58.84
2023-09-06T05:52:57.327Z,58.77
2023-09-06T05:55:25.414Z,58.74
2023-09-06T05:57:54.717Z,58.70
2023-09-06T06:00:23.732Z,58.88
2023-09-06T06:02:52.071Z,58.68
2023-09-06T06:05:20.681Z,58.89
2023-09-06T06:07:48.603Z,58.97
2023-09-06T06:10:16.405Z,58.80
2023-09-06T06:12:44.501Z,59.38
2023-09-06T06:15:14.722Z,59.42
2023-09-06T06:17:43.267Z,59.35
2023-09-06T06:20:12.599Z,59.41
2023-09-06T06:22:41.372Z,59.30
2023-09-06T06:25:11.531Z,59.40
2023-09-06T06:27:40.558Z,59.30
2023-09-06T06:30:10.053Z,59.02
2023-09-06T06:32:39.549Z,59.20
2023-09-06T06:35:09.993Z,59.26
2023-09-06T06:37:37.812Z,59.16
2023-09-06T06:40:07.294Z,59.33
2023-09-06T06:42:35.588Z,59.20
2023-09-06T06:45:05.778Z,59.09
2023-09-06T06:47:33.617Z,59.13
2023-09-06T06:50:07.152Z,59.08
2023-09-06T06:52:37.383Z,59.26
2023-09-06T06:55:06.123Z,59.19
2023-09-06T06:57:34.563Z,59.13
2023-09-06T07:00:06.849Z,59.21
2023-09-06T07:02:36.035Z,59.23
2023-09-06T07:05:05.928Z,59.31
2023-09-06T07:07:33.731Z,59.27
2023-09-06T07:10:02.696Z,59.25
2023-09-06T07:12:30.551Z,59.28
2023-09-06T07:14:59.621Z,59.22
2023-09-06T07:17:27.451Z,59.28
2023-09-06T07:19:55.366Z,59.33
2023-09-06T07:22:24.575Z,59.33
2023-09-06T07:24:52.677Z,59.58
2023-09-06T07:27:22.125Z,59.53
2023-09-06T07:29:50.025Z,59.52
2023-09-06T07:32:17.745Z,59.50
2023-09-06T07:34:46.266Z,59.54
2023-09-06T07:37:13.989Z,59.70
2023-09-06T07:39:43.136Z,59.59
2023-09-06T07:42:10.923Z,59.61
2023-09-06T07:44:38.724Z,59.80
2023-09-06T07:47:06.606Z,59.80
2023-09-06T07:49:34.662Z,59.87
2023-09-06T07:52:06.216Z,59.87
2023-09-06T07:54:34.275Z,59.90
2023-09-06T07:57:03.531Z,59.93
2023-09-06T07:59:31.327Z,60.00
2023-09-06T08:01:59.151Z,59.96
2023-09-06T08:04:27.081Z,60.17
2023-09-06T08:06:57.016Z,60.32
2023-09-06T08:09:25.639Z,60.19
2023-09-06T08:11:53.662Z,60.28
2023-09-06T08:14:22.978Z,60.20
2023-09-06T08:16:50.867Z,60.34
2023-09-06T08:19:18.726Z,60.39
2023-09-06T08:21:46.530Z,60.40
2023-09-06T08:24:14.358Z,60.26
2023-09-06T08:26:42.175Z,60.43
2023-09-06T08:29:09.976Z,60.51
2023-09-06T08:31:40.167Z,60.70
2023-09-06T08:34:08.126Z,60.78
2023-09-06T08:36:35.932Z,60.66
2023-09-06T08:39:04.271Z,61.05
2023-09-06T08:41:34.059Z,60.89
2023-09-06T08:44:07.365Z,61.30
2023-09-06T08:46:40.704Z,61.43
2023-09-06T08:49:11.412Z,61.61
2023-09-06T08:51:40.455Z,61.40
2023-09-06T08:54:08.582Z,61.60
2023-09-06T08:56:37.086Z,61.66
2023-09-06T08:59:07.546Z,61.67
2023-09-06T09:01:39.032Z,61.68
2023-09-06T09:04:10.772Z,61.82
2023-09-06T09:06:43.801Z,62.10
2023-09-06T09:09:17.548Z,62.01
2023-09-06T09:11:47.234Z,62.31
2023-09-06T09:14:22.546Z,62.14
2023-09-06T09:16:56.818Z,62.04
2023-09-06T09:19:26.608Z,62.07
2023-09-06T09:21:56.374Z,62.25
2023-09-06T09:24:29.027Z,62.32
2023-09-06T09:26:58.347Z,62.34
2023-09-06T09:29:26.251Z,62.01
2023-09-06T09:31:54.052Z,62.32
2023-09-06T09:34:22.833Z,62.25
2023-09-06T09:36:53.146Z,62.33
2023-09-06T09:39:27.094Z,62.04
2023-09-06T09:41:59.337Z,62.39
2023-09-06T09:44:28.222Z,62.23
2023-09-06T09:46:58.607Z,62.62
2023-09-06T09:49:27.574Z,62.49
2023-09-06T09:51:56.886Z,62.44
2023-09-06T09:54:25.980Z,62.66
2023-09-06T09:57:04.561Z,62.45
2023-09-06T09:59:33.102Z,62.45
2023-09-06T10:02:02.081Z,62.61
2023-09-06T10:04:30.794Z,62.62
2023-09-06T10:07:00.919Z,62.37
2023-09-06T10:09:30.115Z,62.52
2023-09-06T10:12:00.201Z,62.38
2023-09-06T10:14:29.445Z,62.59
2023-09-06T10:16:58.228Z,62.30
2023-09-06T10:19:26.146Z,62.73
2023-09-06T10:21:54.236Z,62.55
2023-09-06T10:24:24.691Z,62.73
2023-09-06T10:26:55.198Z,62.80
2023-09-06T10:29:25.753Z,62.34
2023-09-06T10:31:54.766Z,62.44
2023-09-06T10:34:24.808Z,62.52
2023-09-06T10:36:56.600Z,61.60
2023-09-06T10:39:27.186Z,61.83
2023-09-06T10:42:16.556Z,62.00
2023-09-06T10:45:10.808Z,62.63
2023-09-06T10:47:40.042Z,62.31
2023-09-06T10:50:13.810Z,62.55
2023-09-06T10:52:46.516Z,62.79
2023-09-06T10:55:19.650Z,62.94
2023-09-06T10:57:53.777Z,62.59
2023-09-06T11:00:26.791Z,62.59
2023-09-06T11:03:18.841Z,62.38
2023-09-06T11:05:53.881Z,62.43
2023-09-06T11:08:35.019Z,61.74
2023-09-06T11:11:10.317Z,62.00
2023-09-06T11:13:39.365Z,61.78
2023-09-06T11:16:12.538Z,62.15
2023-09-06T11:18:47.626Z,62.55
2023-09-06T11:21:19.989Z,62.04
2023-09-06T11:23:49.432Z,62.15
2023-09-06T11:26:18.969Z,62.37
2023-09-06T11:28:48.585Z,62.15
2023-09-06T11:31:26.457Z,61.95
2023-09-06T11:33:57.230Z,62.20
2023-09-06T11:36:29.451Z,62.08
2023-09-06T11:38:58.787Z,62.37
2023-09-06T11:41:29.508Z,62.06
2023-09-06T11:44:00.759Z,61.41
2023-09-06T11:46:29.610Z,60.96
2023-09-06T11:48:57.487Z,61.32
2023-09-06T11:51:26.525Z,61.09
2023-09-06T11:54:01.841Z,61.05
2023-09-06T11:56:34.635Z,60.99
2023-09-06T11:59:07.860Z,61.51
2023-09-06T12:01:41.673Z,61.61
2023-09-06T12:04:11.787Z,59.89
2023-09-06T12:06:42.818Z,60.05
2023-09-06T12:09:13.991Z,60.94
2023-09-06T12:11:43.783Z,61.53
2023-09-06T12:14:12.207Z,61.53
2023-09-06T12:16:41.200Z,61.53
2023-09-06T12:19:12.883Z,60.84
2023-09-06T12:21:40.871Z,60.70
2023-09-06T12:24:09.588Z,60.85
2023-09-06T12:26:37.489Z,60.67
2023-09-06T12:29:06.890Z,55.84
2023-09-06T12:31:34.771Z,55.99
2023-09-06T12:34:04.785Z,58.09
2023-09-06T12:36:32.757Z,59.24
2023-09-06T12:39:00.531Z,60.03
2023-09-06T12:41:28.410Z,59.41
2023-09-06T12:43:56.263Z,59.56
2023-09-06T12:46:25.525Z,59.56
2023-09-06T12:48:53.391Z,59.94
2023-09-06T12:51:21.191Z,59.97
2023-09-06T12:53:51.278Z,60.19
2023-09-06T12:56:20.211Z,60.48
2023-09-06T12:58:48.173Z,61.08
2023-09-06T13:01:16.117Z,60.73
2023-09-06T13:03:46.977Z,60.66
2023-09-06T13:06:15.048Z,59.48
2023-09-06T13:08:43.796Z,58.86
2023-09-06T13:11:14.517Z,58.02
2023-09-06T13:13:42.565Z,58.37
2023-09-06T13:16:10.481Z,59.03
2023-09-06T13:18:39.708Z,59.14
2023-09-06T13:21:09.707Z,59.54
2023-09-06T13:23:37.575Z,59.32
2023-09-06T13:26:05.632Z,58.40
2023-09-06T13:28:34.993Z,58.84
2023-09-06T13:31:04.405Z,58.34
2023-09-06T13:33:34.908Z,59.97
2023-09-06T13:36:05.499Z,60.19
2023-09-06T13:38:34.705Z,59.16
2023-09-06T13:41:02.695Z,58.98
2023-09-06T13:43:30.807Z,59.34
2023-09-06T13:45:59.018Z,60.06
2023-09-06T13:48:26.885Z,59.96
2023-09-06T13:50:54.673Z,58.31
2023-09-06T13:53:22.464Z,57.53
2023-09-06T13:55:51.910Z,58.30
2023-09-06T13:58:19.755Z,58.31
2023-09-06T14:00:47.532Z,58.55
2023-09-06T14:03:15.836Z,58.80
2023-09-06T14:05:43.873Z,58.61
2023-09-06T14:08:11.703Z,58.66
2023-09-06T14:10:39.533Z,58.78
2023-09-06T14:13:08.775Z,57.58
2023-09-06T14:15:36.640Z,58.08
2023-09-06T14:18:05.340Z,57.97
2023-09-06T14:20:35.724Z,57.59
2023-09-06T14:23:03.672Z,57.51
2023-09-06T14:25:31.496Z,57.49
2023-09-06T14:27:59.418Z,56.87
2023-09-06T14:30:28.682Z,57.10
2023-09-06T14:32:56.676Z,56.72
2023-09-06T14:35:24.715Z,56.88
2023-09-06T14:37:54.780Z,56.04
2023-09-06T14:40:22.617Z,55.52
2023-09-06T14:42:50.400Z,56.08
2023-09-06T14:45:18.258Z,57.00
2023-09-06T14:47:47.498Z,56.91
2023-09-06T14:50:15.437Z,56.28
2023-09-06T14:52:43.283Z,56.83
2023-09-06T14:55:11.580Z,56.86
2023-09-06T14:57:41.017Z,56.70
2023-09-06T15:00:10.899Z,57.42
2023-09-06T15:02:38.840Z,57.49
2023-09-06T15:05:09.255Z,57.62
2023-09-06T15:07:39.892Z,57.96
2023-09-06T15:10:12.438Z,57.93
2023-09-06T15:12:40.413Z,57.03
2023-09-06T15:15:11.093Z,57.29
2023-09-06T15:17:39.154Z,56.11
2023-09-06T15:20:12.147Z,47.04
2023-09-06T15:22:41.601Z,46.89
2023-09-06T15:25:12.352Z,47.32
2023-09-06T15:27:41.392Z,49.30
2023-09-06T15:30:09.755Z,51.04
2023-09-06T15:32:37.594Z,51.63
2023-09-06T15:35:08.736Z,52.29
2023-09-06T15:37:38.749Z,51.35
2023-09-06T15:40:07.870Z,51.07
2023-09-06T15:42:36.552Z,51.65
2023-09-06T15:45:09.546Z,51.79
2023-09-06T15:47:38.708Z,52.33
2023-09-06T15:50:09.554Z,52.88
2023-09-06T15:52:38.702Z,53.02
2023-09-06T15:55:07.662Z,52.96
2023-09-06T15:57:35.414Z,53.52
2023-09-06T16:00:24.229Z,53.15
2023-09-06T16:02:57.666Z,52.95
2023-09-06T16:05:25.751Z,53.12
2023-09-06T16:07:56.474Z,52.97
2023-09-06T16:10:26.059Z,53.09
2023-09-06T16:12:54.035Z,53.36
2023-09-06T16:15:23.944Z,52.70
2023-09-06T16:17:51.962Z,52.30
2023-09-06T16:20:20.537Z,52.84
2023-09-06T16:22:48.333Z,53.00
2023-09-06T16:25:17.515Z,52.76
2023-09-06T16:27:46.893Z,52.80
2023-09-06T16:30:15.269Z,52.21
2023-09-06T16:32:43.345Z,51.28
2023-09-06T16:35:12.253Z,51.45
2023-09-06T16:37:40.779Z,51.65
2023-09-06T16:40:12.228Z,51.11
2023-09-06T16:42:42.080Z,51.51
2023-09-06T16:45:11.086Z,50.97
2023-09-06T16:47:38.931Z,50.81
2023-09-06T16:50:08.213Z,50.75
2023-09-06T16:52:38.184Z,51.08
2023-09-06T16:55:07.083Z,50.79
2023-09-06T16:57:34.984Z,51.24
2023-09-06T17:00:05.779Z,51.33
2023-09-06T17:02:33.893Z,51.43
2023-09-06T17:05:01.807Z,51.24
2023-09-06T17:07:29.692Z,51.66
2023-09-06T17:09:57.774Z,51.59
2023-09-06T17:12:26.290Z,51.49
2023-09-06T17:14:55.293Z,51.64
2023-09-06T17:17:24.667Z,51.41
2023-09-06T17:19:52.521Z,51.87
2023-09-06T17:22:20.333Z,51.55
2023-09-06T17:24:50.576Z,51.72
2023-09-06T17:27:18.415Z,51.99
2023-09-06T17:29:48.364Z,51.75
2023-09-06T17:32:16.290Z,51.52
2023-09-06T17:34:45.569Z,51.56
2023-09-06T17:37:13.392Z,51.75
2023-09-06T17:39:41.988Z,51.92
2023-09-06T17:42:09.835Z,51.75
2023-09-06T17:44:38.627Z,52.13
2023-09-06T17:47:08.116Z,52.05
2023-09-06T17:49:36.257Z,52.34
2023-09-06T17:52:06.906Z,52.17
2023-09-06T17:54:34.900Z,52.34
2023-09-06T17:57:05.518Z,52.35
2023-09-06T17:59:33.424Z,52.69
2023-09-06T18:02:02.563Z,52.51
2023-09-06T18:04:31.792Z,52.70
2023-09-06T18:07:00.488Z,52.53
2023-09-06T18:09:30.939Z,52.61
2023-09-06T18:11:58.784Z,52.68
2023-09-06T18:14:26.611Z,53.06
2023-09-06T18:16:56.480Z,53.02
2023-09-06T18:19:26.599Z,53.02
2023-09-06T18:21:57.402Z,53.00
2023-09-06T18:24:25.280Z,52.98
2023-09-06T18:27:05.949Z,52.96
2023-09-06T18:29:37.818Z,53.21
2023-09-06T18:32:07.566Z,53.12
2023-09-06T18:34:35.621Z,53.14
2023-09-06T18:37:09.341Z,53.14
2023-09-06T18:39:39.517Z,53.40
2023-09-06T18:42:09.773Z,53.17
2023-09-06T18:44:39.516Z,53.37
2023-09-06T18:47:09.950Z,53.38
2023-09-06T18:49:38.908Z,53.24
2023-09-06T18:52:08.747Z,53.28
2023-09-06T18:54:37.439Z,53.58
2023-09-06T18:57:05.482Z,53.58
2023-09-06T18:59:34.664Z,53.78
2023-09-06T19:02:02.974Z,53.73
2023-09-06T19:04:30.757Z,53.40
2023-09-06T19:06:58.533Z,53.60
2023-09-06T19:09:26.323Z,53.88
2023-09-06T19:11:54.233Z,53.71
2023-09-06T19:14:23.014Z,53.85
2023-09-06T19:16:53.152Z,53.87
2023-09-06T19:19:22.308Z,53.75
2023-09-06T19:21:50.129Z,53.89
2023-09-06T19:24:17.973Z,53.86
2023-09-06T19:26:46.397Z,53.89
2023-09-06T19:29:14.265Z,54.04
2023-09-06T19:31:42.144Z,53.97
2023-09-06T19:34:11.331Z,54.06
2023-09-06T19:36:39.094Z,53.80
2023-09-06T19:39:12.473Z,54.01
2023-09-06T19:41:40.302Z,53.81
2023-09-06T19:44:08.326Z,54.03
2023-09-06T19:46:36.241Z,54.02
2023-09-06T19:49:06.628Z,53.92
2023-09-06T19:51:36.567Z,53.83
2023-09-06T19:54:04.414Z,53.87
2023-09-06T19:56:32.193Z,53.81
2023-09-06T19:59:00.767Z,53.80
2023-09-06T20:01:28.641Z,53.91
2023-09-06T20:03:56.660Z,53.71
2023-09-06T20:06:24.566Z,53.83
2023-09-06T20:08:53.879Z,53.83
2023-09-06T20:11:22.255Z,53.61
2023-09-06T20:13:50.350Z,53.75
2023-09-06T20:16:18.205Z,53.65
2023-09-06T20:18:46.743Z,53.89
2023-09-06T20:21:14.552Z,53.68
2023-09-06T20:23:42.508Z,53.86
2023-09-06T20:26:11.913Z,53.85
2023-09-06T20:28:39.717Z,53.72
2023-09-06T20:31:09.006Z,53.78
2023-09-06T20:33:37.005Z,53.76
2023-09-06T20:36:05.887Z,53.84
2023-09-06T20:38:34.495Z,53.89
2023-09-06T20:41:03.980Z,53.90
2023-09-06T20:43:34.460Z,53.70
2023-09-06T20:46:02.461Z,53.94
2023-09-06T20:48:30.902Z,53.99
2023-09-06T20:51:03.129Z,53.82
2023-09-06T20:53:32.493Z,53.89
2023-09-06T20:56:01.040Z,53.88
2023-09-06T20:58:29.060Z,54.14
2023-09-06T21:00:58.471Z,54.17
2023-09-06T21:03:27.060Z,53.86
2023-09-06T21:05:58.932Z,54.10
2023-09-06T21:08:26.993Z,54.20
2023-09-06T21:10:55.075Z,54.14
2023-09-06T21:13:23.164Z,54.10
2023-09-06T21:15:53.249Z,54.28
2023-09-06T21:18:22.605Z,54.16
2023-09-06T21:20:50.555Z,54.31
2023-09-06T21:23:18.412Z,54.12
2023-09-06T21:25:46.364Z,54.09
2023-09-06T21:28:14.229Z,54.15
2023-09-06T21:30:43.155Z,54.30
2023-09-06T21:33:10.950Z,54.47
2023-09-06T21:35:43.856Z,54.45
2023-09-06T21:38:12.513Z,54.28
2023-09-06T21:40:41.783Z,54.65
2023-09-06T21:43:17.791Z,54.39
2023-09-06T21:45:46.750Z,54.64
2023-09-06T21:48:15.142Z,54.72
2023-09-06T21:50:50.119Z,54.72
2023-09-06T21:53:18.071Z,54.60
2023-09-06T21:55:45.796Z,54.70
2023-09-06T21:58:13.999Z,54.62
2023-09-06T22:00:41.796Z,54.48
2023-09-06T22:03:09.659Z,54.39
2023-09-06T22:05:37.468Z,54.73
2023-09-06T22:08:07.117Z,54.61
2023-09-06T22:10:34.833Z,54.57
2023-09-06T22:13:03.821Z,54.54
2023-09-06T22:15:31.663Z,54.52
2023-09-06T22:17:59.858Z,54.83
2023-09-06T22:20:31.330Z,54.60
2023-09-06T22:22:59.413Z,54.49
2023-09-06T22:25:29.129Z,54.66
2023-09-06T22:27:58.495Z,54.81
2023-09-06T22:30:26.347Z,54.58
2023-09-06T22:32:54.185Z,54.65
2023-09-06T22:35:22.052Z,54.90
2023-09-06T22:37:49.867Z,54.78
2023-09-06T22:40:17.909Z,54.88
2023-09-06T22:42:47.083Z,54.67
2023-09-06T22:45:15.323Z,54.91
2023-09-06T22:47:43.166Z,54.66
2023-09-06T22:50:12.048Z,54.83
2023-09-06T22:52:42.363Z,55.00
2023-09-06T22:55:11.719Z,54.85
2023-09-06T22:57:39.992Z,54.99
2023-09-06T23:00:12.156Z,54.82
2023-09-06T23:02:40.060Z,54.92
2023-09-06T23:05:10.316Z,54.79
2023-09-06T23:07:38.319Z,55.16
2023-09-06T23:10:07.101Z,54.80
2023-09-06T23:12:34.951Z,55.31
2023-09-06T23:15:04.766Z,54.96
2023-09-06T23:17:38.518Z,55.05
2023-09-06T23:20:14.920Z,55.36
2023-09-06T23:22:45.637Z,55.13
2023-09-06T23:25:16.024Z,55.25
2023-09-06T23:27:46.034Z,55.04
2023-09-06T23:30:18.149Z,55.51
2023-09-06T23:32:51.648Z,55.50
2023-09-06T23:35:21.714Z,55.25
2023-09-06T23:37:51.429Z,55.06
2023-09-06T23:40:23.667Z,55.50
2023-09-06T23:42:54.403Z,55.50
2023-09-06T23:45:24.288Z,55.62
2023-09-06T23:47:56.550Z,55.21
2023-09-06T23:50:27.089Z,55.33
2023-09-06T23:52:57.153Z,55.27
2023-09-06T23:55:25.783Z,55.50
2023-09-06T23:57:53.789Z,55.41
